SAS12TC ESSA-ENGM
Flight info
| Callsign | SAS12TC |
|---|---|
| Flight time | 0h 42m |
| Altitude | 36000 |
| Route | ARS N623 IBGAX DCT EBURI N623 ESEBA |
| Aircraft | B738/M-SDE2E3FGHIRWXY/LB1 |
Departure
| Time | 2026-05-07 13:10 |
|---|---|
| Airport | Stockholm-Arlanda Airport (ESSA) |
Arrival
| Time | 2026-05-07 13:52 |
|---|---|
| Airport | Oslo-Gardermoen International Airport (ENGM) |
| Time | Latitude | Longitude | Altitude | Speed | Heading |
|---|---|---|---|---|---|
| 2026-05-07 12:49 | 59.65396 | 17.93507 | 110 ft | 0 kts | 76° |
| 2026-05-07 12:58 | 59.65394 | 17.93498 | 111 ft | 2 kts | 76° |
| 2026-05-07 12:58 | 59.65389 | 17.93461 | 110 ft | 3 kts | 76° |
| 2026-05-07 12:59 | 59.65385 | 17.93425 | 109 ft | 3 kts | 68° |
| 2026-05-07 12:59 | 59.65376 | 17.93397 | 111 ft | 3 kts | 21° |
| 2026-05-07 12:59 | 59.65358 | 17.93393 | 111 ft | 3 kts | 348° |
| 2026-05-07 12:59 | 59.65348 | 17.93397 | 111 ft | 0 kts | 346° |
| 2026-05-07 13:03 | 59.65377 | 17.93382 | 111 ft | 8 kts | 347° |
| 2026-05-07 13:03 | 59.65429 | 17.93358 | 110 ft | 8 kts | 346° |
| 2026-05-07 13:03 | 59.65484 | 17.93346 | 111 ft | 8 kts | 2° |
| 2026-05-07 13:04 | 59.65535 | 17.93332 | 111 ft | 8 kts | 346° |
| 2026-05-07 13:04 | 59.65590 | 17.93301 | 107 ft | 7 kts | 337° |
| 2026-05-07 13:04 | 59.65605 | 17.93216 | 108 ft | 7 kts | 264° |
| 2026-05-07 13:04 | 59.65595 | 17.93124 | 108 ft | 7 kts | 256° |
| 2026-05-07 13:05 | 59.65583 | 17.93034 | 108 ft | 7 kts | 256° |
| 2026-05-07 13:05 | 59.65572 | 17.92946 | 107 ft | 7 kts | 256° |
| 2026-05-07 13:05 | 59.65557 | 17.92830 | 106 ft | 12 kts | 256° |
| 2026-05-07 13:05 | 59.65535 | 17.92653 | 106 ft | 14 kts | 256° |
| 2026-05-07 13:06 | 59.65572 | 17.92511 | 103 ft | 13 kts | 339° |
| 2026-05-07 13:06 | 59.65668 | 17.92460 | 101 ft | 16 kts | 346° |
| 2026-05-07 13:06 | 59.65776 | 17.92428 | 104 ft | 17 kts | 7° |
| 2026-05-07 13:06 | 59.65893 | 17.92469 | 106 ft | 17 kts | 10° |
| 2026-05-07 13:07 | 59.66009 | 17.92510 | 109 ft | 17 kts | 10° |
| 2026-05-07 13:07 | 59.66134 | 17.92556 | 111 ft | 22 kts | 11° |
| 2026-05-07 13:07 | 59.66292 | 17.92612 | 116 ft | 23 kts | 10° |
| 2026-05-07 13:07 | 59.66443 | 17.92657 | 118 ft | 15 kts | 357° |
| 2026-05-07 13:08 | 59.66528 | 17.92612 | 121 ft | 13 kts | 341° |
| 2026-05-07 13:08 | 59.66607 | 17.92540 | 122 ft | 12 kts | 315° |
| 2026-05-07 13:08 | 59.66627 | 17.92419 | 120 ft | 8 kts | 271° |
| 2026-05-07 13:08 | 59.66591 | 17.92359 | 122 ft | 8 kts | 192° |
| 2026-05-07 13:09 | 59.66538 | 17.92340 | 122 ft | 8 kts | 187° |
| 2026-05-07 13:09 | 59.66458 | 17.92310 | 120 ft | 34 kts | 191° |
| 2026-05-07 13:09 | 59.65898 | 17.92108 | 114 ft | 126 kts | 190° |
| 2026-05-07 13:09 | 59.64780 | 17.91714 | 222 ft | 192 kts | 191° |
| 2026-05-07 13:10 | 59.63419 | 17.91236 | 1149 ft | 201 kts | 190° |
| 2026-05-07 13:10 | 59.62030 | 17.90773 | 2260 ft | 208 kts | 189° |
| 2026-05-07 13:10 | 59.60541 | 17.90092 | 2963 ft | 231 kts | 201° |
| 2026-05-07 13:10 | 59.59127 | 17.88331 | 3427 ft | 262 kts | 224° |
| 2026-05-07 13:11 | 59.58017 | 17.85233 | 3592 ft | 288 kts | 245° |
| 2026-05-07 13:11 | 59.57256 | 17.81662 | 4664 ft | 278 kts | 248° |
| 2026-05-07 13:11 | 59.56603 | 17.78210 | 5953 ft | 266 kts | 249° |
| 2026-05-07 13:11 | 59.55917 | 17.74888 | 7122 ft | 260 kts | 254° |
| 2026-05-07 13:12 | 59.55925 | 17.71358 | 7959 ft | 263 kts | 289° |
| 2026-05-07 13:12 | 59.56539 | 17.67964 | 8879 ft | 265 kts | 280° |
| 2026-05-07 13:12 | 59.56742 | 17.64342 | 9805 ft | 266 kts | 274° |
| 2026-05-07 13:12 | 59.56873 | 17.60663 | 10534 ft | 274 kts | 274° |
| 2026-05-07 13:13 | 59.56994 | 17.56732 | 10746 ft | 299 kts | 273° |
| 2026-05-07 13:13 | 59.57107 | 17.52526 | 10961 ft | 322 kts | 273° |
| 2026-05-07 13:13 | 59.57215 | 17.48022 | 11422 ft | 334 kts | 272° |
| 2026-05-07 13:13 | 59.57316 | 17.43394 | 12174 ft | 338 kts | 272° |
| 2026-05-07 13:14 | 59.57411 | 17.38760 | 13044 ft | 339 kts | 272° |
| 2026-05-07 13:14 | 59.57501 | 17.34105 | 13874 ft | 340 kts | 272° |
| 2026-05-07 13:14 | 59.57588 | 17.29424 | 14588 ft | 343 kts | 272° |
| 2026-05-07 13:14 | 59.57674 | 17.24703 | 15268 ft | 346 kts | 272° |
| 2026-05-07 13:15 | 59.57758 | 17.19949 | 15949 ft | 349 kts | 272° |
| 2026-05-07 13:15 | 59.57840 | 17.15157 | 16638 ft | 351 kts | 272° |
| 2026-05-07 13:15 | 59.57921 | 17.10319 | 17321 ft | 354 kts | 272° |
| 2026-05-07 13:15 | 59.58002 | 17.05436 | 17968 ft | 357 kts | 272° |
| 2026-05-07 13:16 | 59.58081 | 17.00525 | 18573 ft | 360 kts | 271° |
| 2026-05-07 13:16 | 59.58156 | 16.95750 | 19138 ft | 362 kts | 271° |
| 2026-05-07 13:16 | 59.58233 | 16.90770 | 19731 ft | 364 kts | 271° |
| 2026-05-07 13:16 | 59.58308 | 16.85770 | 20315 ft | 366 kts | 271° |
| 2026-05-07 13:17 | 59.58382 | 16.80733 | 20890 ft | 368 kts | 271° |
| 2026-05-07 13:17 | 59.58455 | 16.75676 | 21444 ft | 370 kts | 271° |
| 2026-05-07 13:17 | 59.58526 | 16.70586 | 21984 ft | 372 kts | 271° |
| 2026-05-07 13:17 | 59.58600 | 16.65470 | 22514 ft | 374 kts | 272° |
| 2026-05-07 13:18 | 59.58905 | 16.60411 | 23012 ft | 377 kts | 279° |
| 2026-05-07 13:18 | 59.59435 | 16.55333 | 23532 ft | 379 kts | 281° |
| 2026-05-07 13:18 | 59.60016 | 16.50241 | 23976 ft | 381 kts | 281° |
| 2026-05-07 13:18 | 59.60588 | 16.45129 | 24418 ft | 382 kts | 281° |
| 2026-05-07 13:19 | 59.61140 | 16.39973 | 24839 ft | 384 kts | 281° |
| 2026-05-07 13:19 | 59.61675 | 16.34778 | 25204 ft | 386 kts | 281° |
| 2026-05-07 13:19 | 59.62200 | 16.29560 | 25570 ft | 389 kts | 281° |
| 2026-05-07 13:19 | 59.62723 | 16.24309 | 25943 ft | 391 kts | 281° |
| 2026-05-07 13:20 | 59.63082 | 16.20735 | 26196 ft | 392 kts | 281° |
| 2026-05-07 13:20 | 59.63662 | 16.15477 | 26550 ft | 394 kts | 282° |
| 2026-05-07 13:20 | 59.64268 | 16.10249 | 26897 ft | 396 kts | 283° |
| 2026-05-07 13:20 | 59.64890 | 16.04940 | 27236 ft | 398 kts | 283° |
| 2026-05-07 13:21 | 59.65496 | 15.99734 | 27525 ft | 400 kts | 283° |
| 2026-05-07 13:21 | 59.66101 | 15.94481 | 27813 ft | 403 kts | 282° |
| 2026-05-07 13:21 | 59.66718 | 15.89064 | 28130 ft | 404 kts | 282° |
| 2026-05-07 13:21 | 59.67332 | 15.83625 | 28467 ft | 406 kts | 282° |
| 2026-05-07 13:22 | 59.67944 | 15.78172 | 28864 ft | 405 kts | 283° |
| 2026-05-07 13:22 | 59.68551 | 15.72742 | 29358 ft | 403 kts | 283° |
| 2026-05-07 13:22 | 59.69152 | 15.67333 | 29851 ft | 400 kts | 283° |
| 2026-05-07 13:22 | 59.69747 | 15.61961 | 30253 ft | 399 kts | 283° |
| 2026-05-07 13:23 | 59.70340 | 15.56589 | 30560 ft | 399 kts | 283° |
| 2026-05-07 13:23 | 59.70933 | 15.51208 | 30856 ft | 400 kts | 282° |
| 2026-05-07 13:23 | 59.71524 | 15.45814 | 31185 ft | 399 kts | 282° |
| 2026-05-07 13:23 | 59.72111 | 15.40433 | 31511 ft | 399 kts | 282° |
| 2026-05-07 13:24 | 59.72694 | 15.35067 | 31810 ft | 399 kts | 282° |
| 2026-05-07 13:24 | 59.73270 | 15.29754 | 32102 ft | 399 kts | 282° |
| 2026-05-07 13:24 | 59.73851 | 15.24376 | 32415 ft | 398 kts | 282° |
| 2026-05-07 13:24 | 59.74432 | 15.18984 | 32778 ft | 397 kts | 282° |
| 2026-05-07 13:25 | 59.75006 | 15.13631 | 33126 ft | 396 kts | 282° |
| 2026-05-07 13:25 | 59.75577 | 15.08279 | 33380 ft | 397 kts | 282° |
| 2026-05-07 13:25 | 59.76146 | 15.02928 | 33642 ft | 397 kts | 282° |
| 2026-05-07 13:25 | 59.76678 | 14.97915 | 34027 ft | 394 kts | 282° |
| 2026-05-07 13:26 | 59.77237 | 14.92611 | 34337 ft | 393 kts | 281° |
| 2026-05-07 13:26 | 59.77797 | 14.87284 | 34459 ft | 395 kts | 281° |
| 2026-05-07 13:26 | 59.78928 | 14.76457 | 34267 ft | 405 kts | 281° |
| 2026-05-07 13:27 | 59.79492 | 14.71026 | 34117 ft | 398 kts | 281° |
| 2026-05-07 13:27 | 59.80045 | 14.65680 | 34083 ft | 392 kts | 281° |
| 2026-05-07 13:27 | 59.81116 | 14.55240 | 34058 ft | 373 kts | 281° |
| 2026-05-07 13:28 | 59.81621 | 14.50285 | 34045 ft | 359 kts | 281° |
| 2026-05-07 13:28 | 59.82106 | 14.45518 | 34042 ft | 345 kts | 281° |
| 2026-05-07 13:28 | 59.82570 | 14.40937 | 34041 ft | 332 kts | 281° |
| 2026-05-07 13:28 | 59.83016 | 14.36517 | 34047 ft | 319 kts | 281° |
| 2026-05-07 13:29 | 59.83436 | 14.32338 | 34039 ft | 307 kts | 281° |
| 2026-05-07 13:29 | 59.83850 | 14.28202 | 34067 ft | 305 kts | 281° |
| 2026-05-07 13:29 | 59.84696 | 14.19720 | 34050 ft | 317 kts | 281° |
| 2026-05-07 13:30 | 59.85122 | 14.15419 | 33730 ft | 316 kts | 281° |
| 2026-05-07 13:30 | 59.85541 | 14.11179 | 33246 ft | 316 kts | 281° |
| 2026-05-07 13:30 | 59.85965 | 14.06878 | 32448 ft | 319 kts | 281° |
| 2026-05-07 13:30 | 59.86403 | 14.02418 | 30987 ft | 338 kts | 282° |
| 2026-05-07 13:31 | 59.86830 | 13.98055 | 29707 ft | 353 kts | 282° |
| 2026-05-07 13:31 | 59.87303 | 13.93202 | 28822 ft | 358 kts | 282° |
| 2026-05-07 13:31 | 59.87774 | 13.88350 | 28402 ft | 353 kts | 281° |
| 2026-05-07 13:31 | 59.88233 | 13.83598 | 27979 ft | 347 kts | 281° |
| 2026-05-07 13:32 | 59.88686 | 13.78887 | 27479 ft | 345 kts | 281° |
| 2026-05-07 13:32 | 59.89133 | 13.74217 | 26948 ft | 343 kts | 281° |
| 2026-05-07 13:32 | 59.89580 | 13.69535 | 26440 ft | 342 kts | 281° |
| 2026-05-07 13:32 | 59.90021 | 13.64903 | 25957 ft | 339 kts | 281° |
| 2026-05-07 13:33 | 59.90458 | 13.60289 | 25484 ft | 337 kts | 281° |
| 2026-05-07 13:33 | 59.90891 | 13.55703 | 25019 ft | 336 kts | 281° |
| 2026-05-07 13:33 | 59.91319 | 13.51149 | 24555 ft | 334 kts | 280° |
| 2026-05-07 13:33 | 59.91740 | 13.46654 | 24113 ft | 332 kts | 280° |
| 2026-05-07 13:34 | 59.92160 | 13.42142 | 23673 ft | 330 kts | 280° |
| 2026-05-07 13:34 | 59.93350 | 13.33406 | 22933 ft | 323 kts | 293° |
| 2026-05-07 13:34 | 59.94369 | 13.29426 | 22661 ft | 319 kts | 295° |
| 2026-05-07 13:35 | 59.95405 | 13.25526 | 22342 ft | 316 kts | 295° |
| 2026-05-07 13:35 | 59.96435 | 13.21654 | 21974 ft | 314 kts | 295° |
| 2026-05-07 13:35 | 59.97444 | 13.17849 | 21600 ft | 314 kts | 295° |
| 2026-05-07 13:35 | 59.98468 | 13.13966 | 21245 ft | 318 kts | 295° |
| 2026-05-07 13:36 | 59.99498 | 13.10040 | 20906 ft | 321 kts | 295° |
| 2026-05-07 13:36 | 60.00529 | 13.06098 | 20552 ft | 323 kts | 295° |
| 2026-05-07 13:36 | 60.01566 | 13.02121 | 20226 ft | 321 kts | 295° |
| 2026-05-07 13:36 | 60.02535 | 12.98397 | 19925 ft | 319 kts | 295° |
| 2026-05-07 13:37 | 60.03543 | 12.94515 | 19619 ft | 318 kts | 295° |
| 2026-05-07 13:37 | 60.04560 | 12.90589 | 19323 ft | 317 kts | 295° |
| 2026-05-07 13:37 | 60.05577 | 12.86653 | 19004 ft | 317 kts | 295° |
| 2026-05-07 13:37 | 60.06592 | 12.82716 | 18553 ft | 319 kts | 295° |
| 2026-05-07 13:38 | 60.07612 | 12.78754 | 18088 ft | 320 kts | 295° |
| 2026-05-07 13:38 | 60.08635 | 12.74769 | 17592 ft | 321 kts | 295° |
| 2026-05-07 13:38 | 60.09656 | 12.70791 | 17099 ft | 320 kts | 295° |
| 2026-05-07 13:38 | 60.10659 | 12.66872 | 16621 ft | 319 kts | 295° |
| 2026-05-07 13:39 | 60.11809 | 12.63081 | 16116 ft | 322 kts | 310° |
| 2026-05-07 13:39 | 60.13636 | 12.60426 | 15671 ft | 328 kts | 331° |
| 2026-05-07 13:39 | 60.15831 | 12.59055 | 15239 ft | 334 kts | 347° |
| 2026-05-07 13:39 | 60.18174 | 12.58999 | 14779 ft | 341 kts | 4° |
| 2026-05-07 13:40 | 60.20461 | 12.60237 | 14350 ft | 343 kts | 12° |
| 2026-05-07 13:40 | 60.22759 | 12.60647 | 13876 ft | 331 kts | 345° |
| 2026-05-07 13:40 | 60.24814 | 12.58835 | 13398 ft | 320 kts | 318° |
| 2026-05-07 13:40 | 60.26130 | 12.55393 | 12913 ft | 314 kts | 294° |
| 2026-05-07 13:41 | 60.26919 | 12.51311 | 12448 ft | 312 kts | 287° |
| 2026-05-07 13:41 | 60.27287 | 12.47002 | 11958 ft | 312 kts | 274° |
| 2026-05-07 13:41 | 60.27367 | 12.42621 | 11494 ft | 311 kts | 271° |
| 2026-05-07 13:41 | 60.27401 | 12.38258 | 11032 ft | 312 kts | 271° |
| 2026-05-07 13:42 | 60.27427 | 12.33911 | 10573 ft | 312 kts | 271° |
| 2026-05-07 13:42 | 60.27457 | 12.29578 | 10123 ft | 312 kts | 271° |
| 2026-05-07 13:42 | 60.27491 | 12.25210 | 9647 ft | 312 kts | 271° |
| 2026-05-07 13:42 | 60.27529 | 12.20843 | 9147 ft | 312 kts | 271° |
| 2026-05-07 13:43 | 60.27568 | 12.16470 | 8668 ft | 311 kts | 271° |
| 2026-05-07 13:43 | 60.27609 | 12.12114 | 8237 ft | 309 kts | 271° |
| 2026-05-07 13:43 | 60.27649 | 12.07798 | 7848 ft | 307 kts | 271° |
| 2026-05-07 13:43 | 60.27689 | 12.03497 | 7453 ft | 305 kts | 271° |
| 2026-05-07 13:44 | 60.27725 | 11.99474 | 7084 ft | 303 kts | 271° |
| 2026-05-07 13:44 | 60.27763 | 11.95234 | 6692 ft | 301 kts | 271° |
| 2026-05-07 13:44 | 60.27798 | 11.91076 | 6313 ft | 299 kts | 271° |
| 2026-05-07 13:44 | 60.27832 | 11.86914 | 5917 ft | 297 kts | 271° |
| 2026-05-07 13:45 | 60.27865 | 11.82752 | 5528 ft | 295 kts | 271° |
| 2026-05-07 13:45 | 60.27896 | 11.78622 | 5139 ft | 294 kts | 271° |
| 2026-05-07 13:45 | 60.27926 | 11.74565 | 5020 ft | 284 kts | 271° |
| 2026-05-07 13:45 | 60.27953 | 11.70671 | 4991 ft | 270 kts | 271° |
| 2026-05-07 13:46 | 60.27978 | 11.66968 | 4996 ft | 258 kts | 271° |
| 2026-05-07 13:46 | 60.28001 | 11.63422 | 5013 ft | 250 kts | 271° |
| 2026-05-07 13:46 | 60.28023 | 11.60004 | 5012 ft | 243 kts | 271° |
| 2026-05-07 13:46 | 60.28043 | 11.56671 | 5007 ft | 238 kts | 271° |
| 2026-05-07 13:47 | 60.28062 | 11.53288 | 4849 ft | 240 kts | 271° |
| 2026-05-07 13:47 | 60.28080 | 11.49939 | 4660 ft | 238 kts | 271° |
| 2026-05-07 13:47 | 60.28097 | 11.46610 | 4458 ft | 237 kts | 271° |
| 2026-05-07 13:47 | 60.28113 | 11.43317 | 4226 ft | 231 kts | 271° |
| 2026-05-07 13:48 | 60.28127 | 11.40276 | 3992 ft | 222 kts | 271° |
| 2026-05-07 13:48 | 60.28140 | 11.37205 | 3679 ft | 218 kts | 270° |
| 2026-05-07 13:48 | 60.28153 | 11.34168 | 3303 ft | 215 kts | 271° |
| 2026-05-07 13:48 | 60.28166 | 11.31163 | 2944 ft | 213 kts | 271° |
| 2026-05-07 13:49 | 60.28180 | 11.28248 | 2587 ft | 202 kts | 270° |
| 2026-05-07 13:49 | 60.28191 | 11.25508 | 2409 ft | 188 kts | 271° |
| 2026-05-07 13:49 | 60.28196 | 11.22974 | 2251 ft | 173 kts | 271° |
| 2026-05-07 13:49 | 60.28199 | 11.20600 | 2186 ft | 173 kts | 271° |
| 2026-05-07 13:50 | 60.28202 | 11.18154 | 2052 ft | 174 kts | 271° |
| 2026-05-07 13:50 | 60.28204 | 11.15737 | 2019 ft | 173 kts | 269° |
| 2026-05-07 13:50 | 60.27870 | 11.13486 | 1985 ft | 170 kts | 226° |
| 2026-05-07 13:50 | 60.26867 | 11.12457 | 2016 ft | 159 kts | 197° |
| 2026-05-07 13:51 | 60.25821 | 11.11686 | 1685 ft | 162 kts | 201° |
| 2026-05-07 13:51 | 60.24756 | 11.10954 | 1438 ft | 157 kts | 196° |
| 2026-05-07 13:51 | 60.23757 | 11.10419 | 1271 ft | 149 kts | 196° |
| 2026-05-07 13:51 | 60.22755 | 11.09852 | 994 ft | 150 kts | 197° |
| 2026-05-07 13:52 | 60.21765 | 11.09260 | 755 ft | 146 kts | 197° |
| 2026-05-07 13:52 | 60.20822 | 11.08714 | 680 ft | 131 kts | 196° |
| 2026-05-07 13:52 | 60.20091 | 11.08291 | 675 ft | 87 kts | 196° |
| 2026-05-07 13:52 | 60.19727 | 11.08092 | 673 ft | 18 kts | 183° |
| 2026-05-07 13:53 | 60.19630 | 11.08120 | 670 ft | 10 kts | 165° |
| 2026-05-07 13:53 | 60.19581 | 11.08217 | 673 ft | 10 kts | 115° |
| 2026-05-07 13:53 | 60.19565 | 11.08346 | 673 ft | 8 kts | 98° |
| 2026-05-07 13:53 | 60.19547 | 11.08456 | 674 ft | 9 kts | 105° |
| 2026-05-07 13:54 | 60.19570 | 11.08554 | 677 ft | 8 kts | 29° |
| 2026-05-07 13:54 | 60.19625 | 11.08584 | 677 ft | 8 kts | 14° |
| 2026-05-07 13:54 | 60.19678 | 11.08614 | 677 ft | 8 kts | 18° |
| 2026-05-07 13:54 | 60.19731 | 11.08648 | 675 ft | 8 kts | 17° |
| 2026-05-07 13:55 | 60.19777 | 11.08706 | 676 ft | 8 kts | 80° |
| 2026-05-07 13:55 | 60.19763 | 11.08830 | 674 ft | 9 kts | 106° |
| 2026-05-07 13:55 | 60.19745 | 11.08951 | 680 ft | 9 kts | 106° |
| 2026-05-07 13:55 | 60.19728 | 11.09068 | 682 ft | 9 kts | 105° |
| 2026-05-07 13:56 | 60.19710 | 11.09202 | 682 ft | 11 kts | 105° |
| 2026-05-07 13:56 | 60.19687 | 11.09363 | 682 ft | 13 kts | 107° |
| 2026-05-07 13:56 | 60.19659 | 11.09550 | 682 ft | 14 kts | 106° |
| 2026-05-07 13:56 | 60.19634 | 11.09689 | 680 ft | 9 kts | 124° |
| 2026-05-07 13:57 | 60.19591 | 11.09774 | 681 ft | 6 kts | 138° |
| 2026-05-07 13:57 | 60.19571 | 11.09810 | 684 ft | 4 kts | 138° |
| 2026-05-07 13:57 | 60.19560 | 11.09858 | 684 ft | 4 kts | 106° |
| 2026-05-07 13:57 | 60.19554 | 11.09901 | 684 ft | 2 kts | 106° |
| 2026-05-07 13:58 | 60.19552 | 11.09914 | 684 ft | 0 kts | 106° |